sensor_id;sensor_type;location;lat;lon;timestamp;pressure;altitude;pressure_sealevel;temperature;humidity
2000;BME280;1001;48.87406500;9.59633600;2022-08-19T00:01:13;94691.47;;;19.95;85.31
2000;BME280;1001;48.87406500;9.59633600;2022-08-19T00:03:40;94694.34;;;19.99;84.74
2000;BME280;1001;48.87406500;9.59633600;2022-08-19T00:06:06;94696.00;;;19.95;84.85
2000;BME280;1001;48.87406500;9.59633600;2022-08-19T00:08:33;94692.84;;;19.93;85.67
2000;BME280;1001;48.87406500;9.59633600;2022-08-19T00:11:00;94703.56;;;20.01;84.71
2000;BME280;1001;48.87406500;9.59633600;2022-08-19T00:13:28;94711.50;;;20.15;83.88
2000;BME280;1001;48.87406500;9.59633600;2022-08-19T00:15:55;94709.16;;;20.13;84.61
2000;BME280;1001;48.87406500;9.59633600;2022-08-19T00:18:24;94715.13;;;20.19;84.02
2000;BME280;1001;48.87406500;9.59633600;2022-08-19T00:20:50;94723.19;;;20.14;83.98
2000;BME280;1001;48.87406500;9.59633600;2022-08-19T00:23:18;94719.28;;;20.11;84.10
2000;BME280;1001;48.87406500;9.59633600;2022-08-19T00:25:45;94705.63;;;20.18;83.31
2000;BME280;1001;48.87406500;9.59633600;2022-08-19T00:28:11;94702.47;;;20.02;83.95
2000;BME280;1001;48.87406500;9.59633600;2022-08-19T00:30:39;94703.34;;;20.11;84.15
2000;BME280;1001;48.87406500;9.59633600;2022-08-19T00:33:06;94712.53;;;19.92;84.64
2000;BME280;1001;48.87406500;9.59633600;2022-08-19T00:35:34;94700.72;;;19.98;84.24
2000;BME280;1001;48.87406500;9.59633600;2022-08-19T00:38:00;94686.47;;;19.94;84.79
2000;BME280;1001;48.87406500;9.59633600;2022-08-19T00:40:27;94677.44;;;19.81;85.67
2000;BME280;1001;48.87406500;9.59633600;2022-08-19T00:42:55;94680.97;;;19.90;84.46
2000;BME280;1001;48.87406500;9.59633600;2022-08-19T00:45:25;94674.59;;;19.78;85.41
2000;BME280;1001;48.87406500;9.59633600;2022-08-19T00:47:53;94677.16;;;19.83;85.05
2000;BME280;1001;48.87406500;9.59633600;2022-08-19T00:50:20;94682.94;;;19.85;85.49
2000;BME280;1001;48.87406500;9.59633600;2022-08-19T00:52:50;94689.81;;;19.72;85.96
2000;BME280;1001;48.87406500;9.59633600;2022-08-19T00:55:19;94689.66;;;19.68;86.45
2000;BME280;1001;48.87406500;9.59633600;2022-08-19T00:57:51;94696.41;;;19.61;86.95
2000;BME280;1001;48.87406500;9.59633600;2022-08-19T01:00:22;94697.31;;;19.56;87.71
2000;BME280;1001;48.87406500;9.59633600;2022-08-19T01:02:49;94701.00;;;19.42;88.41
2000;BME280;1001;48.87406500;9.59633600;2022-08-19T01:05:21;94702.22;;;19.31;89.52
2000;BME280;1001;48.87406500;9.59633600;2022-08-19T01:07:48;94710.97;;;19.31;88.91
2000;BME280;1001;48.87406500;9.59633600;2022-08-19T01:10:18;94708.00;;;19.38;88.70
2000;BME280;1001;48.87406500;9.59633600;2022-08-19T01:12:46;94708.66;;;19.43;88.90
2000;BME280;1001;48.87406500;9.59633600;2022-08-19T01:15:16;94698.06;;;19.43;89.18
2000;BME280;1001;48.87406500;9.59633600;2022-08-19T01:17:44;94702.09;;;19.41;89.41
2000;BME280;1001;48.87406500;9.59633600;2022-08-19T01:20:14;94699.75;;;19.53;87.98
2000;BME280;1001;48.87406500;9.59633600;2022-08-19T01:22:45;94695.72;;;19.42;89.04
2000;BME280;1001;48.87406500;9.59633600;2022-08-19T01:25:14;94689.94;;;19.53;87.19
2000;BME280;1001;48.87406500;9.59633600;2022-08-19T01:27:42;94687.06;;;19.50;87.82
2000;BME280;1001;48.87406500;9.59633600;2022-08-19T01:30:11;94687.28;;;19.53;87.33
2000;BME280;1001;48.87406500;9.59633600;2022-08-19T01:32:38;94688.16;;;19.49;87.79
2000;BME280;1001;48.87406500;9.59633600;2022-08-19T01:35:05;94677.53;;;19.49;87.51
2000;BME280;1001;48.87406500;9.59633600;2022-08-19T01:37:44;94683.44;;;19.46;88.38
2000;BME280;1001;48.87406500;9.59633600;2022-08-19T01:40:11;94679.50;;;19.43;88.25
2000;BME280;1001;48.87406500;9.59633600;2022-08-19T01:42:38;94685.50;;;19.49;87.54
2000;BME280;1001;48.87406500;9.59633600;2022-08-19T01:45:06;94681.66;;;19.41;88.20
2000;BME280;1001;48.87406500;9.59633600;2022-08-19T01:47:34;94685.75;;;19.34;88.91
2000;BME280;1001;48.87406500;9.59633600;2022-08-19T01:50:01;94684.88;;;19.38;88.22
2000;BME280;1001;48.87406500;9.59633600;2022-08-19T01:52:28;94685.47;;;19.35;88.59
2000;BME280;1001;48.87406500;9.59633600;2022-08-19T01:54:56;94688.63;;;19.37;88.39
2000;BME280;1001;48.87406500;9.59633600;2022-08-19T01:57:23;94680.06;;;19.40;88.94
2000;BME280;1001;48.87406500;9.59633600;2022-08-19T01:59:49;94681.75;;;19.36;88.37
2000;BME280;1001;48.87406500;9.59633600;2022-08-19T02:02:16;94674.94;;;19.30;88.40
2000;BME280;1001;48.87406500;9.59633600;2022-08-19T02:04:43;94680.63;;;19.24;88.91
2000;BME280;1001;48.87406500;9.59633600;2022-08-19T02:07:11;94679.38;;;19.35;88.67
2000;BME280;1001;48.87406500;9.59633600;2022-08-19T02:09:38;94683.09;;;19.34;88.68
2000;BME280;1001;48.87406500;9.59633600;2022-08-19T02:12:07;94688.41;;;19.34;88.72
2000;BME280;1001;48.87406500;9.59633600;2022-08-19T02:14:34;94698.94;;;19.39;88.69
2000;BME280;1001;48.87406500;9.59633600;2022-08-19T02:17:00;94696.88;;;19.36;88.74
2000;BME280;1001;48.87406500;9.59633600;2022-08-19T02:19:27;94694.50;;;19.34;89.29
2000;BME280;1001;48.87406500;9.59633600;2022-08-19T02:21:54;94695.16;;;19.26;90.04
2000;BME280;1001;48.87406500;9.59633600;2022-08-19T02:24:20;94703.91;;;19.27;90.21
2000;BME280;1001;48.87406500;9.59633600;2022-08-19T02:26:47;94712.94;;;19.26;90.14
2000;BME280;1001;48.87406500;9.59633600;2022-08-19T02:29:15;94720.28;;;19.29;90.82
2000;BME280;1001;48.87406500;9.59633600;2022-08-19T02:31:42;94711.78;;;19.32;90.37
2000;BME280;1001;48.87406500;9.59633600;2022-08-19T02:34:08;94706.63;;;19.22;90.93
2000;BME280;1001;48.87406500;9.59633600;2022-08-19T02:36:35;94699.47;;;19.22;91.12
2000;BME280;1001;48.87406500;9.59633600;2022-08-19T02:39:02;94699.56;;;19.31;90.70
2000;BME280;1001;48.87406500;9.59633600;2022-08-19T02:41:31;94692.41;;;19.31;89.98
2000;BME280;1001;48.87406500;9.59633600;2022-08-19T02:44:00;94686.31;;;19.17;90.04
2000;BME280;1001;48.87406500;9.59633600;2022-08-19T02:46:31;94694.38;;;19.26;90.75
2000;BME280;1001;48.87406500;9.59633600;2022-08-19T02:49:00;94693.88;;;19.24;90.25
2000;BME280;1001;48.87406500;9.59633600;2022-08-19T02:51:31;94692.22;;;19.28;90.50
2000;BME280;1001;48.87406500;9.59633600;2022-08-19T02:53:58;94691.69;;;19.12;91.97
2000;BME280;1001;48.87406500;9.59633600;2022-08-19T02:56:25;94682.66;;;18.99;92.34
2000;BME280;1001;48.87406500;9.59633600;2022-08-19T02:58:53;94681.63;;;18.95;92.74
2000;BME280;1001;48.87406500;9.59633600;2022-08-19T03:01:22;94687.06;;;18.90;93.01
2000;BME280;1001;48.87406500;9.59633600;2022-08-19T03:03:51;94682.63;;;18.67;94.85
2000;BME280;1001;48.87406500;9.59633600;2022-08-19T03:06:18;94688.16;;;18.71;95.11
2000;BME280;1001;48.87406500;9.59633600;2022-08-19T03:08:46;94688.16;;;18.71;95.41
2000;BME280;1001;48.87406500;9.59633600;2022-08-19T03:11:14;94694.09;;;18.63;95.93
2000;BME280;1001;48.87406500;9.59633600;2022-08-19T03:13:41;94694.09;;;18.63;96.76
2000;BME280;1001;48.87406500;9.59633600;2022-08-19T03:16:09;94692.53;;;18.62;96.63
2000;BME280;1001;48.87406500;9.59633600;2022-08-19T03:18:37;94697.34;;;18.60;97.55
2000;BME280;1001;48.87406500;9.59633600;2022-08-19T03:21:05;94688.09;;;18.57;98.11
2000;BME280;1001;48.87406500;9.59633600;2022-08-19T03:23:32;94684.16;;;18.55;97.33
2000;BME280;1001;48.87406500;9.59633600;2022-08-19T03:26:02;94690.88;;;18.66;97.55
2000;BME280;1001;48.87406500;9.59633600;2022-08-19T03:28:30;94694.50;;;18.70;96.46
2000;BME280;1001;48.87406500;9.59633600;2022-08-19T03:30:59;94693.94;;;18.73;95.41
2000;BME280;1001;48.87406500;9.59633600;2022-08-19T03:33:28;94693.94;;;18.73;95.98
2000;BME280;1001;48.87406500;9.59633600;2022-08-19T03:36:12;94690.22;;;18.74;95.77
2000;BME280;1001;48.87406500;9.59633600;2022-08-19T03:38:42;94685.44;;;18.76;95.98
2000;BME280;1001;48.87406500;9.59633600;2022-08-19T03:41:12;94685.34;;;18.81;95.13
2000;BME280;1001;48.87406500;9.59633600;2022-08-19T03:43:41;94688.28;;;18.79;95.37
2000;BME280;1001;48.87406500;9.59633600;2022-08-19T03:46:10;94689.06;;;18.80;95.53
2000;BME280;1001;48.87406500;9.59633600;2022-08-19T03:48:38;94697.00;;;18.80;95.25
2000;BME280;1001;48.87406500;9.59633600;2022-08-19T03:51:06;94686.50;;;18.75;95.62
2000;BME280;1001;48.87406500;9.59633600;2022-08-19T03:53:35;94676.88;;;18.79;95.68
2000;BME280;1001;48.87406500;9.59633600;2022-08-19T03:56:01;94683.19;;;18.83;95.35
2000;BME280;1001;48.87406500;9.59633600;2022-08-19T03:58:29;94692.88;;;18.74;96.25
2000;BME280;1001;48.87406500;9.59633600;2022-08-19T04:00:56;94698.28;;;18.82;95.54
2000;BME280;1001;48.87406500;9.59633600;2022-08-19T04:03:23;94693.66;;;18.74;96.58
2000;BME280;1001;48.87406500;9.59633600;2022-08-19T04:05:51;94689.72;;;18.72;96.08
2000;BME280;1001;48.87406500;9.59633600;2022-08-19T04:08:18;94695.88;;;18.67;97.27
2000;BME280;1001;48.87406500;9.59633600;2022-08-19T04:10:48;94695.47;;;18.60;97.49
2000;BME280;1001;48.87406500;9.59633600;2022-08-19T04:13:15;94698.91;;;18.61;97.72
2000;BME280;1001;48.87406500;9.59633600;2022-08-19T04:15:44;94696.63;;;18.54;97.74
2000;BME280;1001;48.87406500;9.59633600;2022-08-19T04:18:12;94687.81;;;18.59;97.67
2000;BME280;1001;48.87406500;9.59633600;2022-08-19T04:20:41;94686.81;;;18.55;98.42
2000;BME280;1001;48.87406500;9.59633600;2022-08-19T04:23:08;94694.25;;;18.53;98.22
2000;BME280;1001;48.87406500;9.59633600;2022-08-19T04:25:37;94686.91;;;18.50;98.54
2000;BME280;1001;48.87406500;9.59633600;2022-08-19T04:28:06;94685.94;;;18.59;98.57
2000;BME280;1001;48.87406500;9.59633600;2022-08-19T04:30:39;94678.56;;;18.38;99.95
2000;BME280;1001;48.87406500;9.59633600;2022-08-19T04:33:06;94679.63;;;18.36;100.00
2000;BME280;1001;48.87406500;9.59633600;2022-08-19T04:35:38;94679.34;;;18.38;100.00
2000;BME280;1001;48.87406500;9.59633600;2022-08-19T04:38:05;94674.81;;;18.38;100.00
2000;BME280;1001;48.87406500;9.59633600;2022-08-19T04:40:33;94678.63;;;18.32;100.00
2000;BME280;1001;48.87406500;9.59633600;2022-08-19T04:43:18;94677.69;;;18.42;100.00
2000;BME280;1001;48.87406500;9.59633600;2022-08-19T04:45:45;94681.09;;;18.48;99.83
2000;BME280;1001;48.87406500;9.59633600;2022-08-19T04:48:12;94674.25;;;18.42;100.00
2000;BME280;1001;48.87406500;9.59633600;2022-08-19T04:50:41;94684.25;;;18.50;99.84
2000;BME280;1001;48.87406500;9.59633600;2022-08-19T04:53:08;94686.69;;;18.41;100.00
2000;BME280;1001;48.87406500;9.59633600;2022-08-19T04:55:38;94689.94;;;18.38;100.00
2000;BME280;1001;48.87406500;9.59633600;2022-08-19T04:58:05;94689.78;;;18.29;100.00
2000;BME280;1001;48.87406500;9.59633600;2022-08-19T05:00:33;94706.91;;;18.37;100.00
2000;BME280;1001;48.87406500;9.59633600;2022-08-19T05:03:00;94714.28;;;18.40;100.00
2000;BME280;1001;48.87406500;9.59633600;2022-08-19T05:05:27;94709.78;;;18.41;100.00
2000;BME280;1001;48.87406500;9.59633600;2022-08-19T05:07:53;94714.44;;;18.49;100.00
2000;BME280;1001;48.87406500;9.59633600;2022-08-19T05:10:21;94719.16;;;18.52;100.00
2000;BME280;1001;48.87406500;9.59633600;2022-08-19T05:12:48;94727.31;;;18.55;99.96
2000;BME280;1001;48.87406500;9.59633600;2022-08-19T05:15:14;94731.03;;;18.54;99.95
2000;BME280;1001;48.87406500;9.59633600;2022-08-19T05:17:42;94737.69;;;18.52;100.00
2000;BME280;1001;48.87406500;9.59633600;2022-08-19T05:20:29;94741.50;;;18.64;99.17
2000;BME280;1001;48.87406500;9.59633600;2022-08-19T05:23:13;94751.22;;;18.69;98.81
2000;BME280;1001;48.87406500;9.59633600;2022-08-19T05:25:41;94754.16;;;18.67;99.21
2000;BME280;1001;48.87406500;9.59633600;2022-08-19T05:28:07;94763.13;;;18.71;98.35
2000;BME280;1001;48.87406500;9.59633600;2022-08-19T05:30:34;94767.69;;;18.66;99.72
2000;BME280;1001;48.87406500;9.59633600;2022-08-19T05:33:02;94770.84;;;18.68;99.43
2000;BME280;1001;48.87406500;9.59633600;2022-08-19T05:35:29;94768.69;;;18.70;99.06
2000;BME280;1001;48.87406500;9.59633600;2022-08-19T05:37:56;94782.34;;;18.77;98.66
2000;BME280;1001;48.87406500;9.59633600;2022-08-19T05:40:22;94779.94;;;18.80;98.22
2000;BME280;1001;48.87406500;9.59633600;2022-08-19T05:42:49;94792.88;;;18.82;98.28
2000;BME280;1001;48.87406500;9.59633600;2022-08-19T05:45:16;94781.00;;;18.79;98.56
2000;BME280;1001;48.87406500;9.59633600;2022-08-19T05:47:42;94791.81;;;18.83;98.96
2000;BME280;1001;48.87406500;9.59633600;2022-08-19T05:50:11;94793.66;;;18.82;99.23
2000;BME280;1001;48.87406500;9.59633600;2022-08-19T05:52:38;94802.13;;;18.84;99.49
2000;BME280;1001;48.87406500;9.59633600;2022-08-19T05:55:06;94790.78;;;18.79;99.85
2000;BME280;1001;48.87406500;9.59633600;2022-08-19T05:57:33;94803.47;;;18.82;99.64
2000;BME280;1001;48.87406500;9.59633600;2022-08-19T05:59:59;94802.97;;;18.80;99.66
2000;BME280;1001;48.87406500;9.59633600;2022-08-19T06:02:28;94800.63;;;18.78;100.00
2000;BME280;1001;48.87406500;9.59633600;2022-08-19T06:04:55;94800.19;;;18.71;100.00
2000;BME280;1001;48.87406500;9.59633600;2022-08-19T06:07:23;94794.16;;;18.84;100.00
2000;BME280;1001;48.87406500;9.59633600;2022-08-19T06:09:50;94784.56;;;18.70;100.00
2000;BME280;1001;48.87406500;9.59633600;2022-08-19T06:12:17;94786.94;;;18.71;100.00
2000;BME280;1001;48.87406500;9.59633600;2022-08-19T06:14:43;94793.88;;;18.67;100.00
2000;BME280;1001;48.87406500;9.59633600;2022-08-19T06:17:10;94784.13;;;18.63;100.00
2000;BME280;1001;48.87406500;9.59633600;2022-08-19T06:19:38;94792.16;;;18.58;100.00
2000;BME280;1001;48.87406500;9.59633600;2022-08-19T06:22:06;94788.59;;;18.44;100.00
2000;BME280;1001;48.87406500;9.59633600;2022-08-19T06:24:34;94782.09;;;18.36;100.00
2000;BME280;1001;48.87406500;9.59633600;2022-08-19T06:27:02;94790.81;;;18.36;100.00
2000;BME280;1001;48.87406500;9.59633600;2022-08-19T06:29:30;94794.25;;;18.37;100.00
2000;BME280;1001;48.87406500;9.59633600;2022-08-19T06:31:59;94798.59;;;18.52;100.00
2000;BME280;1001;48.87406500;9.59633600;2022-08-19T06:34:28;94799.03;;;18.59;100.00
2000;BME280;1001;48.87406500;9.59633600;2022-08-19T06:36:56;94796.31;;;18.64;100.00
2000;BME280;1001;48.87406500;9.59633600;2022-08-19T06:39:27;94798.66;;;18.47;100.00
2000;BME280;1001;48.87406500;9.59633600;2022-08-19T06:41:59;94801.13;;;18.62;100.00
2000;BME280;1001;48.87406500;9.59633600;2022-08-19T06:44:29;94802.41;;;18.83;100.00
2000;BME280;1001;48.87406500;9.59633600;2022-08-19T06:46:56;94793.53;;;18.92;100.00
2000;BME280;1001;48.87406500;9.59633600;2022-08-19T06:49:23;94795.94;;;19.08;100.00
2000;BME280;1001;48.87406500;9.59633600;2022-08-19T06:51:56;94794.84;;;19.27;100.00
2000;BME280;1001;48.87406500;9.59633600;2022-08-19T06:54:24;94801.88;;;19.18;100.00
2000;BME280;1001;48.87406500;9.59633600;2022-08-19T06:56:52;94800.59;;;19.16;100.00
2000;BME280;1001;48.87406500;9.59633600;2022-08-19T06:59:22;94807.03;;;18.91;100.00
2000;BME280;1001;48.87406500;9.59633600;2022-08-19T07:01:55;94805.00;;;18.88;100.00
2000;BME280;1001;48.87406500;9.59633600;2022-08-19T07:04:24;94807.41;;;18.84;100.00
2000;BME280;1001;48.87406500;9.59633600;2022-08-19T07:06:57;94807.97;;;18.81;100.00
2000;BME280;1001;48.87406500;9.59633600;2022-08-19T07:09:26;94810.19;;;18.74;100.00
2000;BME280;1001;48.87406500;9.59633600;2022-08-19T07:11:53;94821.28;;;18.76;100.00
2000;BME280;1001;48.87406500;9.59633600;2022-08-19T07:14:23;94811.78;;;18.75;100.00
2000;BME280;1001;48.87406500;9.59633600;2022-08-19T07:16:52;94809.13;;;18.75;100.00
2000;BME280;1001;48.87406500;9.59633600;2022-08-19T07:19:21;94804.97;;;18.69;100.00
2000;BME280;1001;48.87406500;9.59633600;2022-08-19T07:21:50;94813.72;;;18.70;100.00
2000;BME280;1001;48.87406500;9.59633600;2022-08-19T07:24:18;94810.84;;;18.66;100.00
2000;BME280;1001;48.87406500;9.59633600;2022-08-19T07:26:45;94818.63;;;18.58;100.00
2000;BME280;1001;48.87406500;9.59633600;2022-08-19T07:29:12;94815.88;;;18.44;100.00
2000;BME280;1001;48.87406500;9.59633600;2022-08-19T07:31:40;94814.25;;;18.48;100.00
2000;BME280;1001;48.87406500;9.59633600;2022-08-19T07:34:08;94806.97;;;18.59;100.00
2000;BME280;1001;48.87406500;9.59633600;2022-08-19T07:36:38;94812.22;;;18.64;100.00
2000;BME280;1001;48.87406500;9.59633600;2022-08-19T07:39:11;94811.22;;;18.60;100.00
2000;BME280;1001;48.87406500;9.59633600;2022-08-19T07:41:39;94807.97;;;18.63;100.00
2000;BME280;1001;48.87406500;9.59633600;2022-08-19T07:44:06;94810.19;;;18.74;100.00
2000;BME280;1001;48.87406500;9.59633600;2022-08-19T07:46:36;94806.78;;;18.74;100.00
2000;BME280;1001;48.87406500;9.59633600;2022-08-19T07:49:06;94811.00;;;18.93;100.00
2000;BME280;1001;48.87406500;9.59633600;2022-08-19T07:51:33;94812.34;;;18.91;100.00
2000;BME280;1001;48.87406500;9.59633600;2022-08-19T07:54:00;94799.91;;;18.91;100.00
2000;BME280;1001;48.87406500;9.59633600;2022-08-19T07:56:27;94810.19;;;19.12;100.00
2000;BME280;1001;48.87406500;9.59633600;2022-08-19T07:58:53;94818.66;;;19.14;100.00
2000;BME280;1001;48.87406500;9.59633600;2022-08-19T08:01:23;94825.72;;;19.18;100.00
2000;BME280;1001;48.87406500;9.59633600;2022-08-19T08:03:52;94818.44;;;19.10;100.00
2000;BME280;1001;48.87406500;9.59633600;2022-08-19T08:06:38;94832.13;;;18.80;100.00
2000;BME280;1001;48.87406500;9.59633600;2022-08-19T08:09:25;94841.22;;;18.74;100.00
2000;BME280;1001;48.87406500;9.59633600;2022-08-19T08:11:57;94845.41;;;18.56;100.00
2000;BME280;1001;48.87406500;9.59633600;2022-08-19T08:14:27;94837.69;;;18.36;100.00
2000;BME280;1001;48.87406500;9.59633600;2022-08-19T08:16:54;94836.75;;;18.51;100.00
2000;BME280;1001;48.87406500;9.59633600;2022-08-19T08:19:23;94839.88;;;18.53;100.00
2000;BME280;1001;48.87406500;9.59633600;2022-08-19T08:21:52;94840.34;;;18.60;100.00
2000;BME280;1001;48.87406500;9.59633600;2022-08-19T08:24:19;94840.84;;;18.62;100.00
2000;BME280;1001;48.87406500;9.59633600;2022-08-19T08:26:46;94831.31;;;18.61;100.00
2000;BME280;1001;48.87406500;9.59633600;2022-08-19T08:29:13;94835.75;;;18.65;100.00
2000;BME280;1001;48.87406500;9.59633600;2022-08-19T08:31:42;94833.47;;;18.77;100.00
2000;BME280;1001;48.87406500;9.59633600;2022-08-19T08:34:10;94832.06;;;18.85;100.00
2000;BME280;1001;48.87406500;9.59633600;2022-08-19T08:36:37;94828.81;;;18.69;100.00
2000;BME280;1001;48.87406500;9.59633600;2022-08-19T08:39:09;94826.19;;;18.88;100.00
2000;BME280;1001;48.87406500;9.59633600;2022-08-19T08:41:40;94832.41;;;18.97;100.00
2000;BME280;1001;48.87406500;9.59633600;2022-08-19T08:44:14;94833.41;;;19.01;100.00
2000;BME280;1001;48.87406500;9.59633600;2022-08-19T08:46:45;94837.72;;;18.97;100.00
2000;BME280;1001;48.87406500;9.59633600;2022-08-19T08:49:20;94836.47;;;19.08;100.00
2000;BME280;1001;48.87406500;9.59633600;2022-08-19T08:51:52;94833.34;;;19.06;100.00
2000;BME280;1001;48.87406500;9.59633600;2022-08-19T08:54:30;94838.84;;;18.91;100.00
2000;BME280;1001;48.87406500;9.59633600;2022-08-19T08:56:58;94829.03;;;18.91;100.00
2000;BME280;1001;48.87406500;9.59633600;2022-08-19T08:59:28;94833.75;;;19.13;100.00
2000;BME280;1001;48.87406500;9.59633600;2022-08-19T09:01:57;94837.81;;;19.24;100.00
2000;BME280;1001;48.87406500;9.59633600;2022-08-19T09:04:24;94846.19;;;19.31;100.00
2000;BME280;1001;48.87406500;9.59633600;2022-08-19T09:06:55;94851.22;;;19.33;100.00
2000;BME280;1001;48.87406500;9.59633600;2022-08-19T09:09:33;94855.38;;;19.20;100.00
2000;BME280;1001;48.87406500;9.59633600;2022-08-19T09:12:07;94852.19;;;19.05;100.00
2000;BME280;1001;48.87406500;9.59633600;2022-08-19T09:14:40;94853.59;;;19.16;100.00
2000;BME280;1001;48.87406500;9.59633600;2022-08-19T09:17:12;94862.84;;;19.18;100.00
2000;BME280;1001;48.87406500;9.59633600;2022-08-19T09:19:49;94863.84;;;19.22;100.00
2000;BME280;1001;48.87406500;9.59633600;2022-08-19T09:22:17;94858.97;;;19.29;100.00
2000;BME280;1001;48.87406500;9.59633600;2022-08-19T09:24:48;94856.19;;;19.39;100.00
2000;BME280;1001;48.87406500;9.59633600;2022-08-19T09:27:15;94858.53;;;19.41;100.00
2000;BME280;1001;48.87406500;9.59633600;2022-08-19T09:29:42;94855.88;;;19.41;100.00
2000;BME280;1001;48.87406500;9.59633600;2022-08-19T09:32:09;94857.59;;;19.50;100.00
2000;BME280;1001;48.87406500;9.59633600;2022-08-19T09:34:35;94857.03;;;19.53;100.00
2000;BME280;1001;48.87406500;9.59633600;2022-08-19T09:37:02;94860.88;;;19.61;100.00
2000;BME280;1001;48.87406500;9.59633600;2022-08-19T09:39:30;94856.88;;;19.63;100.00
2000;BME280;1001;48.87406500;9.59633600;2022-08-19T09:41:58;94861.91;;;19.46;100.00
2000;BME280;1001;48.87406500;9.59633600;2022-08-19T09:44:25;94864.97;;;19.35;100.00
2000;BME280;1001;48.87406500;9.59633600;2022-08-19T09:46:52;94872.09;;;19.39;100.00
2000;BME280;1001;48.87406500;9.59633600;2022-08-19T09:49:19;94877.22;;;19.31;100.00
2000;BME280;1001;48.87406500;9.59633600;2022-08-19T09:51:49;94861.19;;;19.22;100.00
2000;BME280;1001;48.87406500;9.59633600;2022-08-19T09:54:16;94860.19;;;19.37;100.00
2000;BME280;1001;48.87406500;9.59633600;2022-08-19T09:56:42;94860.81;;;19.47;100.00
2000;BME280;1001;48.87406500;9.59633600;2022-08-19T09:59:11;94866.34;;;19.51;100.00
2000;BME280;1001;48.87406500;9.59633600;2022-08-19T10:01:38;94862.94;;;19.64;100.00
2000;BME280;1001;48.87406500;9.59633600;2022-08-19T10:04:05;94863.75;;;19.78;100.00
2000;BME280;1001;48.87406500;9.59633600;2022-08-19T10:06:34;94861.88;;;19.65;100.00
2000;BME280;1001;48.87406500;9.59633600;2022-08-19T10:09:01;94865.56;;;19.50;100.00
2000;BME280;1001;48.87406500;9.59633600;2022-08-19T10:11:29;94871.84;;;19.54;100.00
2000;BME280;1001;48.87406500;9.59633600;2022-08-19T10:13:56;94865.63;;;19.27;100.00
2000;BME280;1001;48.87406500;9.59633600;2022-08-19T10:16:24;94859.47;;;19.13;100.00
2000;BME280;1001;48.87406500;9.59633600;2022-08-19T10:18:52;94855.25;;;19.12;100.00
2000;BME280;1001;48.87406500;9.59633600;2022-08-19T10:21:21;94847.28;;;19.30;100.00
2000;BME280;1001;48.87406500;9.59633600;2022-08-19T10:23:50;94852.63;;;19.62;100.00
2000;BME280;1001;48.87406500;9.59633600;2022-08-19T10:26:20;94858.66;;;19.82;100.00
2000;BME280;1001;48.87406500;9.59633600;2022-08-19T10:28:47;94861.25;;;20.00;100.00
2000;BME280;1001;48.87406500;9.59633600;2022-08-19T10:31:16;94860.19;;;20.01;100.00
2000;BME280;1001;48.87406500;9.59633600;2022-08-19T10:33:46;94867.28;;;20.06;100.00
2000;BME280;1001;48.87406500;9.59633600;2022-08-19T10:36:16;94873.38;;;20.20;100.00
2000;BME280;1001;48.87406500;9.59633600;2022-08-19T10:38:44;94873.66;;;20.18;100.00
2000;BME280;1001;48.87406500;9.59633600;2022-08-19T10:41:13;94865.97;;;20.03;100.00
2000;BME280;1001;48.87406500;9.59633600;2022-08-19T10:43:40;94866.94;;;19.94;100.00
2000;BME280;1001;48.87406500;9.59633600;2022-08-19T10:46:09;94867.53;;;19.91;100.00
2000;BME280;1001;48.87406500;9.59633600;2022-08-19T10:48:36;94864.78;;;20.09;100.00
2000;BME280;1001;48.87406500;9.59633600;2022-08-19T10:51:05;94862.63;;;19.98;100.00
2000;BME280;1001;48.87406500;9.59633600;2022-08-19T10:53:50;94868.41;;;20.00;100.00
2000;BME280;1001;48.87406500;9.59633600;2022-08-19T10:56:18;94865.19;;;20.16;100.00
2000;BME280;1001;48.87406500;9.59633600;2022-08-19T10:59:03;94865.84;;;20.27;100.00
2000;BME280;1001;48.87406500;9.59633600;2022-08-19T11:01:30;94863.47;;;20.25;100.00
2000;BME280;1001;48.87406500;9.59633600;2022-08-19T11:03:59;94863.56;;;20.20;100.00
2000;BME280;1001;48.87406500;9.59633600;2022-08-19T11:06:28;94856.16;;;20.17;100.00
2000;BME280;1001;48.87406500;9.59633600;2022-08-19T11:08:55;94857.22;;;20.16;100.00
2000;BME280;1001;48.87406500;9.59633600;2022-08-19T11:11:22;94850.28;;;20.20;100.00
2000;BME280;1001;48.87406500;9.59633600;2022-08-19T11:13:49;94846.69;;;20.11;100.00
2000;BME280;1001;48.87406500;9.59633600;2022-08-19T11:16:18;94845.53;;;20.17;100.00
2000;BME280;1001;48.87406500;9.59633600;2022-08-19T11:18:48;94852.22;;;20.15;100.00
2000;BME280;1001;48.87406500;9.59633600;2022-08-19T11:21:16;94860.84;;;20.07;100.00
2000;BME280;1001;48.87406500;9.59633600;2022-08-19T11:23:46;94858.09;;;19.98;100.00
2000;BME280;1001;48.87406500;9.59633600;2022-08-19T11:26:13;94869.59;;;19.94;100.00
2000;BME280;1001;48.87406500;9.59633600;2022-08-19T11:28:41;94858.28;;;19.88;100.00
2000;BME280;1001;48.87406500;9.59633600;2022-08-19T11:31:10;94863.41;;;19.85;100.00
2000;BME280;1001;48.87406500;9.59633600;2022-08-19T11:33:37;94863.66;;;19.83;100.00
2000;BME280;1001;48.87406500;9.59633600;2022-08-19T11:36:04;94860.59;;;19.76;100.00
2000;BME280;1001;48.87406500;9.59633600;2022-08-19T11:38:31;94863.06;;;19.73;100.00
2000;BME280;1001;48.87406500;9.59633600;2022-08-19T11:41:02;94871.97;;;19.63;100.00
2000;BME280;1001;48.87406500;9.59633600;2022-08-19T11:43:29;94872.31;;;19.75;100.00
2000;BME280;1001;48.87406500;9.59633600;2022-08-19T11:45:56;94861.06;;;19.64;100.00
2000;BME280;1001;48.87406500;9.59633600;2022-08-19T11:48:24;94870.63;;;19.65;100.00